sensor_id;sensor_type;location;lat;lon;timestamp;P1;durP1;ratioP1;P2;durP2;ratioP2
21729;SDS011;11027;51.030;13.812;2024-02-15T00:01:01;5.82;;;4.28;;
21729;SDS011;11027;51.030;13.812;2024-02-15T00:03:26;4.53;;;4.05;;
21729;SDS011;11027;51.030;13.812;2024-02-15T00:05:51;7.05;;;4.40;;
21729;SDS011;11027;51.030;13.812;2024-02-15T00:08:17;10.65;;;8.10;;
21729;SDS011;11027;51.030;13.812;2024-02-15T00:10:43;17.85;;;12.10;;
21729;SDS011;11027;51.030;13.812;2024-02-15T00:13:11;17.92;;;12.82;;
21729;SDS011;11027;51.030;13.812;2024-02-15T00:15:36;24.88;;;16.38;;
21729;SDS011;11027;51.030;13.812;2024-02-15T00:18:01;22.48;;;16.75;;
21729;SDS011;11027;51.030;13.812;2024-02-15T00:20:28;26.75;;;19.00;;
21729;SDS011;11027;51.030;13.812;2024-02-15T00:22:53;24.63;;;20.25;;
21729;SDS011;11027;51.030;13.812;2024-02-15T00:25:20;22.02;;;15.88;;
21729;SDS011;11027;51.030;13.812;2024-02-15T00:27:46;21.80;;;18.00;;
21729;SDS011;11027;51.030;13.812;2024-02-15T00:30:11;23.55;;;19.13;;
21729;SDS011;11027;51.030;13.812;2024-02-15T00:32:36;20.65;;;16.02;;
21729;SDS011;11027;51.030;13.812;2024-02-15T00:35:03;15.93;;;12.43;;
21729;SDS011;11027;51.030;13.812;2024-02-15T00:37:32;15.73;;;10.73;;
21729;SDS011;11027;51.030;13.812;2024-02-15T00:39:58;16.13;;;11.48;;
21729;SDS011;11027;51.030;13.812;2024-02-15T00:42:23;15.38;;;11.45;;
21729;SDS011;11027;51.030;13.812;2024-02-15T00:44:48;15.38;;;11.57;;
21729;SDS011;11027;51.030;13.812;2024-02-15T00:47:14;11.75;;;9.30;;
21729;SDS011;11027;51.030;13.812;2024-02-15T00:49:40;9.63;;;7.00;;
21729;SDS011;11027;51.030;13.812;2024-02-15T00:52:05;8.85;;;7.70;;
21729;SDS011;11027;51.030;13.812;2024-02-15T00:54:31;10.38;;;7.60;;
21729;SDS011;11027;51.030;13.812;2024-02-15T00:56:56;10.65;;;6.90;;
21729;SDS011;11027;51.030;13.812;2024-02-15T00:59:21;10.27;;;6.28;;
21729;SDS011;11027;51.030;13.812;2024-02-15T01:01:47;10.10;;;6.55;;
21729;SDS011;11027;51.030;13.812;2024-02-15T01:04:13;10.02;;;6.15;;
21729;SDS011;11027;51.030;13.812;2024-02-15T01:06:38;8.57;;;5.85;;
21729;SDS011;11027;51.030;13.812;2024-02-15T01:09:04;10.38;;;6.50;;
21729;SDS011;11027;51.030;13.812;2024-02-15T01:11:29;10.82;;;6.55;;
21729;SDS011;11027;51.030;13.812;2024-02-15T01:13:57;11.20;;;7.00;;
21729;SDS011;11027;51.030;13.812;2024-02-15T01:16:22;8.32;;;6.57;;
21729;SDS011;11027;51.030;13.812;2024-02-15T01:18:48;10.48;;;6.80;;
21729;SDS011;11027;51.030;13.812;2024-02-15T01:21:13;9.55;;;6.85;;
21729;SDS011;11027;51.030;13.812;2024-02-15T01:23:39;8.88;;;6.35;;
21729;SDS011;11027;51.030;13.812;2024-02-15T01:26:04;11.43;;;7.28;;
21729;SDS011;11027;51.030;13.812;2024-02-15T01:28:30;13.02;;;7.45;;
21729;SDS011;11027;51.030;13.812;2024-02-15T01:30:55;10.15;;;7.82;;
21729;SDS011;11027;51.030;13.812;2024-02-15T01:33:20;10.38;;;7.85;;
21729;SDS011;11027;51.030;13.812;2024-02-15T01:35:45;12.32;;;8.23;;
21729;SDS011;11027;51.030;13.812;2024-02-15T01:38:11;11.05;;;8.00;;
21729;SDS011;11027;51.030;13.812;2024-02-15T01:40:36;12.52;;;8.25;;
21729;SDS011;11027;51.030;13.812;2024-02-15T01:43:01;11.75;;;8.55;;
21729;SDS011;11027;51.030;13.812;2024-02-15T01:45:26;11.93;;;7.72;;
21729;SDS011;11027;51.030;13.812;2024-02-15T01:47:53;11.07;;;7.88;;
21729;SDS011;11027;51.030;13.812;2024-02-15T01:50:19;12.30;;;8.35;;
21729;SDS011;11027;51.030;13.812;2024-02-15T01:52:46;9.70;;;7.78;;
21729;SDS011;11027;51.030;13.812;2024-02-15T01:55:13;11.18;;;7.80;;
21729;SDS011;11027;51.030;13.812;2024-02-15T01:57:40;13.07;;;8.13;;
21729;SDS011;11027;51.030;13.812;2024-02-15T02:00:13;13.70;;;7.55;;
21729;SDS011;11027;51.030;13.812;2024-02-15T02:02:42;11.00;;;7.63;;
21729;SDS011;11027;51.030;13.812;2024-02-15T02:05:09;10.35;;;7.97;;
21729;SDS011;11027;51.030;13.812;2024-02-15T02:07:35;9.32;;;7.47;;
21729;SDS011;11027;51.030;13.812;2024-02-15T02:10:00;10.90;;;7.20;;
21729;SDS011;11027;51.030;13.812;2024-02-15T02:12:26;10.85;;;7.45;;
21729;SDS011;11027;51.030;13.812;2024-02-15T02:14:54;9.45;;;7.53;;
21729;SDS011;11027;51.030;13.812;2024-02-15T02:17:20;10.40;;;7.22;;
21729;SDS011;11027;51.030;13.812;2024-02-15T02:19:46;10.48;;;7.55;;
21729;SDS011;11027;51.030;13.812;2024-02-15T02:22:13;10.30;;;7.30;;
21729;SDS011;11027;51.030;13.812;2024-02-15T02:24:40;10.32;;;6.97;;
21729;SDS011;11027;51.030;13.812;2024-02-15T02:27:10;8.32;;;6.93;;
21729;SDS011;11027;51.030;13.812;2024-02-15T02:29:41;8.93;;;7.38;;
21729;SDS011;11027;51.030;13.812;2024-02-15T02:32:10;10.02;;;7.00;;
21729;SDS011;11027;51.030;13.812;2024-02-15T02:34:36;10.18;;;7.13;;
21729;SDS011;11027;51.030;13.812;2024-02-15T02:37:01;10.20;;;7.00;;
21729;SDS011;11027;51.030;13.812;2024-02-15T02:39:30;9.38;;;6.55;;
21729;SDS011;11027;51.030;13.812;2024-02-15T02:41:56;9.93;;;7.20;;
21729;SDS011;11027;51.030;13.812;2024-02-15T02:44:22;11.05;;;7.10;;
21729;SDS011;11027;51.030;13.812;2024-02-15T02:46:47;10.73;;;7.20;;
21729;SDS011;11027;51.030;13.812;2024-02-15T02:49:12;10.60;;;7.25;;
21729;SDS011;11027;51.030;13.812;2024-02-15T02:51:38;10.60;;;7.15;;
21729;SDS011;11027;51.030;13.812;2024-02-15T02:54:03;8.27;;;6.65;;
21729;SDS011;11027;51.030;13.812;2024-02-15T02:56:31;8.57;;;6.30;;
21729;SDS011;11027;51.030;13.812;2024-02-15T02:58:57;9.40;;;6.47;;
21729;SDS011;11027;51.030;13.812;2024-02-15T03:01:23;9.65;;;6.72;;
21729;SDS011;11027;51.030;13.812;2024-02-15T03:03:51;7.63;;;5.80;;
21729;SDS011;11027;51.030;13.812;2024-02-15T03:06:20;7.75;;;5.63;;
21729;SDS011;11027;51.030;13.812;2024-02-15T03:08:45;7.68;;;6.05;;
21729;SDS011;11027;51.030;13.812;2024-02-15T03:11:10;8.25;;;6.13;;
21729;SDS011;11027;51.030;13.812;2024-02-15T03:13:37;6.78;;;5.60;;
21729;SDS011;11027;51.030;13.812;2024-02-15T03:16:02;7.28;;;5.72;;
21729;SDS011;11027;51.030;13.812;2024-02-15T03:18:29;7.53;;;5.72;;
21729;SDS011;11027;51.030;13.812;2024-02-15T03:20:54;6.55;;;5.40;;
21729;SDS011;11027;51.030;13.812;2024-02-15T03:23:19;6.90;;;5.63;;
21729;SDS011;11027;51.030;13.812;2024-02-15T03:25:45;6.45;;;5.10;;
21729;SDS011;11027;51.030;13.812;2024-02-15T03:28:10;6.72;;;5.03;;
21729;SDS011;11027;51.030;13.812;2024-02-15T03:30:35;6.50;;;4.95;;
21729;SDS011;11027;51.030;13.812;2024-02-15T03:33:00;7.97;;;4.95;;
21729;SDS011;11027;51.030;13.812;2024-02-15T03:35:27;6.78;;;5.57;;
21729;SDS011;11027;51.030;13.812;2024-02-15T03:37:56;6.68;;;5.07;;
21729;SDS011;11027;51.030;13.812;2024-02-15T03:40:22;8.27;;;5.93;;
21729;SDS011;11027;51.030;13.812;2024-02-15T03:42:49;8.18;;;5.32;;
21729;SDS011;11027;51.030;13.812;2024-02-15T03:45:17;8.50;;;5.63;;
21729;SDS011;11027;51.030;13.812;2024-02-15T03:47:42;8.43;;;5.35;;
21729;SDS011;11027;51.030;13.812;2024-02-15T03:50:08;9.13;;;5.63;;
21729;SDS011;11027;51.030;13.812;2024-02-15T03:52:39;7.50;;;5.82;;
21729;SDS011;11027;51.030;13.812;2024-02-15T03:55:06;7.97;;;5.20;;
21729;SDS011;11027;51.030;13.812;2024-02-15T03:57:32;8.52;;;5.88;;
21729;SDS011;11027;51.030;13.812;2024-02-15T03:59:58;6.72;;;5.30;;
21729;SDS011;11027;51.030;13.812;2024-02-15T04:02:24;8.80;;;6.30;;
21729;SDS011;11027;51.030;13.812;2024-02-15T04:04:54;7.05;;;5.45;;
21729;SDS011;11027;51.030;13.812;2024-02-15T04:07:20;6.65;;;5.30;;
21729;SDS011;11027;51.030;13.812;2024-02-15T04:09:46;6.97;;;5.70;;
21729;SDS011;11027;51.030;13.812;2024-02-15T04:12:12;7.78;;;5.82;;
21729;SDS011;11027;51.030;13.812;2024-02-15T04:14:38;9.63;;;5.90;;
21729;SDS011;11027;51.030;13.812;2024-02-15T04:17:05;6.82;;;5.30;;
21729;SDS011;11027;51.030;13.812;2024-02-15T04:19:31;7.38;;;5.65;;
21729;SDS011;11027;51.030;13.812;2024-02-15T04:21:56;6.50;;;5.30;;
21729;SDS011;11027;51.030;13.812;2024-02-15T04:24:22;9.55;;;5.93;;
21729;SDS011;11027;51.030;13.812;2024-02-15T04:26:48;6.75;;;5.53;;
21729;SDS011;11027;51.030;13.812;2024-02-15T04:29:14;10.60;;;5.90;;
21729;SDS011;11027;51.030;13.812;2024-02-15T04:31:40;7.95;;;5.38;;
21729;SDS011;11027;51.030;13.812;2024-02-15T04:34:07;7.38;;;5.70;;
21729;SDS011;11027;51.030;13.812;2024-02-15T04:36:34;9.20;;;6.30;;
21729;SDS011;11027;51.030;13.812;2024-02-15T04:38:59;8.70;;;6.20;;
21729;SDS011;11027;51.030;13.812;2024-02-15T04:41:27;9.27;;;5.90;;
21729;SDS011;11027;51.030;13.812;2024-02-15T04:43:53;8.18;;;5.80;;
21729;SDS011;11027;51.030;13.812;2024-02-15T04:46:19;10.63;;;5.97;;
21729;SDS011;11027;51.030;13.812;2024-02-15T04:48:46;6.03;;;5.38;;
21729;SDS011;11027;51.030;13.812;2024-02-15T04:51:12;7.65;;;6.03;;
21729;SDS011;11027;51.030;13.812;2024-02-15T04:53:37;7.95;;;6.30;;
21729;SDS011;11027;51.030;13.812;2024-02-15T04:56:05;8.40;;;6.55;;
21729;SDS011;11027;51.030;13.812;2024-02-15T04:58:36;8.32;;;6.03;;
21729;SDS011;11027;51.030;13.812;2024-02-15T05:01:02;7.80;;;5.65;;
21729;SDS011;11027;51.030;13.812;2024-02-15T05:03:29;8.30;;;6.65;;
21729;SDS011;11027;51.030;13.812;2024-02-15T05:05:57;7.45;;;6.07;;
21729;SDS011;11027;51.030;13.812;2024-02-15T05:08:23;9.82;;;6.47;;
21729;SDS011;11027;51.030;13.812;2024-02-15T05:10:48;9.43;;;6.75;;
21729;SDS011;11027;51.030;13.812;2024-02-15T05:13:13;9.65;;;7.00;;
21729;SDS011;11027;51.030;13.812;2024-02-15T05:15:39;7.78;;;6.45;;
21729;SDS011;11027;51.030;13.812;2024-02-15T05:18:04;9.15;;;6.65;;
21729;SDS011;11027;51.030;13.812;2024-02-15T05:20:33;9.50;;;6.75;;
21729;SDS011;11027;51.030;13.812;2024-02-15T05:22:59;13.00;;;7.18;;
21729;SDS011;11027;51.030;13.812;2024-02-15T05:25:24;9.40;;;7.03;;
21729;SDS011;11027;51.030;13.812;2024-02-15T05:27:52;9.15;;;6.80;;
21729;SDS011;11027;51.030;13.812;2024-02-15T05:30:18;7.75;;;6.20;;
21729;SDS011;11027;51.030;13.812;2024-02-15T05:32:43;9.52;;;6.85;;
21729;SDS011;11027;51.030;13.812;2024-02-15T05:35:10;9.80;;;7.53;;
21729;SDS011;11027;51.030;13.812;2024-02-15T05:37:36;10.68;;;7.60;;
21729;SDS011;11027;51.030;13.812;2024-02-15T05:40:01;12.30;;;7.60;;
21729;SDS011;11027;51.030;13.812;2024-02-15T05:42:26;11.15;;;7.63;;
21729;SDS011;11027;51.030;13.812;2024-02-15T05:44:52;9.45;;;7.72;;
21729;SDS011;11027;51.030;13.812;2024-02-15T05:47:17;11.85;;;7.55;;
21729;SDS011;11027;51.030;13.812;2024-02-15T05:49:42;10.80;;;8.02;;
21729;SDS011;11027;51.030;13.812;2024-02-15T05:52:08;9.27;;;7.20;;
21729;SDS011;11027;51.030;13.812;2024-02-15T05:54:33;10.27;;;7.13;;
21729;SDS011;11027;51.030;13.812;2024-02-15T05:56:59;11.85;;;7.45;;
21729;SDS011;11027;51.030;13.812;2024-02-15T05:59:25;10.30;;;7.28;;
21729;SDS011;11027;51.030;13.812;2024-02-15T06:01:51;10.07;;;7.65;;
21729;SDS011;11027;51.030;13.812;2024-02-15T06:04:16;11.02;;;7.55;;
21729;SDS011;11027;51.030;13.812;2024-02-15T06:06:41;11.45;;;7.72;;
21729;SDS011;11027;51.030;13.812;2024-02-15T06:09:07;10.95;;;7.82;;
21729;SDS011;11027;51.030;13.812;2024-02-15T06:11:33;11.18;;;7.03;;
21729;SDS011;11027;51.030;13.812;2024-02-15T06:13:58;12.65;;;7.88;;
21729;SDS011;11027;51.030;13.812;2024-02-15T06:16:23;10.82;;;7.82;;
21729;SDS011;11027;51.030;13.812;2024-02-15T06:18:48;13.88;;;7.75;;
21729;SDS011;11027;51.030;13.812;2024-02-15T06:21:14;11.85;;;8.05;;
21729;SDS011;11027;51.030;13.812;2024-02-15T06:23:39;11.50;;;7.90;;
21729;SDS011;11027;51.030;13.812;2024-02-15T06:26:05;10.80;;;7.80;;
21729;SDS011;11027;51.030;13.812;2024-02-15T06:28:31;10.45;;;8.18;;
21729;SDS011;11027;51.030;13.812;2024-02-15T06:31:15;9.88;;;7.25;;
21729;SDS011;11027;51.030;13.812;2024-02-15T06:33:59;8.80;;;7.57;;
21729;SDS011;11027;51.030;13.812;2024-02-15T06:36:50;10.88;;;7.72;;
21729;SDS011;11027;51.030;13.812;2024-02-15T06:39:36;12.38;;;8.50;;
21729;SDS011;11027;51.030;13.812;2024-02-15T06:42:06;14.30;;;8.82;;
21729;SDS011;11027;51.030;13.812;2024-02-15T06:44:37;12.25;;;8.63;;
21729;SDS011;11027;51.030;13.812;2024-02-15T06:47:05;13.52;;;8.70;;
21729;SDS011;11027;51.030;13.812;2024-02-15T06:49:31;14.77;;;8.50;;
21729;SDS011;11027;51.030;13.812;2024-02-15T06:51:57;10.63;;;8.25;;
21729;SDS011;11027;51.030;13.812;2024-02-15T06:54:24;12.80;;;9.10;;
21729;SDS011;11027;51.030;13.812;2024-02-15T06:56:49;11.85;;;8.48;;
21729;SDS011;11027;51.030;13.812;2024-02-15T06:59:16;11.88;;;9.13;;
21729;SDS011;11027;51.030;13.812;2024-02-15T07:01:43;19.98;;;9.40;;
21729;SDS011;11027;51.030;13.812;2024-02-15T07:04:09;14.32;;;9.40;;
21729;SDS011;11027;51.030;13.812;2024-02-15T07:06:38;11.70;;;9.35;;
21729;SDS011;11027;51.030;13.812;2024-02-15T07:09:04;11.40;;;9.23;;
21729;SDS011;11027;51.030;13.812;2024-02-15T07:11:31;14.90;;;9.05;;
21729;SDS011;11027;51.030;13.812;2024-02-15T07:13:59;11.90;;;9.30;;
21729;SDS011;11027;51.030;13.812;2024-02-15T07:16:24;11.90;;;9.30;;
21729;SDS011;11027;51.030;13.812;2024-02-15T07:18:49;13.27;;;9.35;;
21729;SDS011;11027;51.030;13.812;2024-02-15T07:21:15;14.98;;;9.48;;
21729;SDS011;11027;51.030;13.812;2024-02-15T07:23:41;13.30;;;9.75;;
21729;SDS011;11027;51.030;13.812;2024-02-15T07:26:07;11.88;;;9.38;;
21729;SDS011;11027;51.030;13.812;2024-02-15T07:28:33;14.30;;;9.95;;
21729;SDS011;11027;51.030;13.812;2024-02-15T07:30:58;13.98;;;9.57;;
21729;SDS011;11027;51.030;13.812;2024-02-15T07:33:25;13.10;;;10.18;;
21729;SDS011;11027;51.030;13.812;2024-02-15T07:35:50;15.68;;;9.65;;
21729;SDS011;11027;51.030;13.812;2024-02-15T07:38:16;12.50;;;9.32;;
21729;SDS011;11027;51.030;13.812;2024-02-15T07:40:42;15.40;;;9.80;;
21729;SDS011;11027;51.030;13.812;2024-02-15T07:43:07;15.38;;;9.90;;
21729;SDS011;11027;51.030;13.812;2024-02-15T07:45:32;14.70;;;9.77;;
21729;SDS011;11027;51.030;13.812;2024-02-15T07:48:01;13.85;;;9.85;;
21729;SDS011;11027;51.030;13.812;2024-02-15T07:50:29;15.40;;;10.45;;
21729;SDS011;11027;51.030;13.812;2024-02-15T07:52:54;13.10;;;10.02;;
21729;SDS011;11027;51.030;13.812;2024-02-15T07:55:19;16.05;;;10.05;;
21729;SDS011;11027;51.030;13.812;2024-02-15T07:57:45;15.25;;;10.00;;
21729;SDS011;11027;51.030;13.812;2024-02-15T08:00:13;12.88;;;9.05;;
21729;SDS011;11027;51.030;13.812;2024-02-15T08:02:41;16.90;;;9.65;;
21729;SDS011;11027;51.030;13.812;2024-02-15T08:05:07;13.27;;;9.65;;
21729;SDS011;11027;51.030;13.812;2024-02-15T08:07:36;12.55;;;9.30;;
21729;SDS011;11027;51.030;13.812;2024-02-15T08:10:02;13.05;;;9.35;;
21729;SDS011;11027;51.030;13.812;2024-02-15T08:12:28;15.15;;;9.60;;
21729;SDS011;11027;51.030;13.812;2024-02-15T08:14:54;12.38;;;9.32;;
21729;SDS011;11027;51.030;13.812;2024-02-15T08:17:19;12.35;;;9.50;;
21729;SDS011;11027;51.030;13.812;2024-02-15T08:19:44;11.77;;;9.25;;
21729;SDS011;11027;51.030;13.812;2024-02-15T08:22:09;14.88;;;8.80;;
21729;SDS011;11027;51.030;13.812;2024-02-15T08:24:35;12.13;;;8.82;;
21729;SDS011;11027;51.030;13.812;2024-02-15T08:27:00;14.02;;;9.43;;
21729;SDS011;11027;51.030;13.812;2024-02-15T08:29:29;13.32;;;9.05;;
21729;SDS011;11027;51.030;13.812;2024-02-15T08:31:54;13.20;;;9.07;;
21729;SDS011;11027;51.030;13.812;2024-02-15T08:34:20;12.40;;;8.77;;
21729;SDS011;11027;51.030;13.812;2024-02-15T08:36:45;13.13;;;9.00;;
21729;SDS011;11027;51.030;13.812;2024-02-15T08:39:12;10.65;;;8.55;;
21729;SDS011;11027;51.030;13.812;2024-02-15T08:41:38;12.90;;;9.25;;
21729;SDS011;11027;51.030;13.812;2024-02-15T08:44:04;11.77;;;9.15;;
21729;SDS011;11027;51.030;13.812;2024-02-15T08:46:34;10.88;;;8.52;;
21729;SDS011;11027;51.030;13.812;2024-02-15T08:49:01;16.25;;;9.25;;
21729;SDS011;11027;51.030;13.812;2024-02-15T08:51:26;11.77;;;9.02;;
21729;SDS011;11027;51.030;13.812;2024-02-15T08:53:51;11.90;;;8.95;;
21729;SDS011;11027;51.030;13.812;2024-02-15T08:56:17;12.15;;;9.70;;
21729;SDS011;11027;51.030;13.812;2024-02-15T08:58:42;12.98;;;9.10;;
21729;SDS011;11027;51.030;13.812;2024-02-15T09:01:07;15.57;;;11.73;;
21729;SDS011;11027;51.030;13.812;2024-02-15T09:03:33;11.88;;;9.05;;
21729;SDS011;11027;51.030;13.812;2024-02-15T09:05:59;9.85;;;7.15;;
21729;SDS011;11027;51.030;13.812;2024-02-15T09:08:28;11.27;;;8.45;;
21729;SDS011;11027;51.030;13.812;2024-02-15T09:10:55;15.20;;;8.88;;
21729;SDS011;11027;51.030;13.812;2024-02-15T09:13:20;9.35;;;7.45;;
21729;SDS011;11027;51.030;13.812;2024-02-15T09:15:47;9.85;;;7.45;;
21729;SDS011;11027;51.030;13.812;2024-02-15T09:18:12;9.30;;;7.30;;
21729;SDS011;11027;51.030;13.812;2024-02-15T09:20:38;9.68;;;7.38;;
21729;SDS011;11027;51.030;13.812;2024-02-15T09:23:09;10.07;;;7.50;;
21729;SDS011;11027;51.030;13.812;2024-02-15T09:25:39;10.98;;;7.63;;
21729;SDS011;11027;51.030;13.812;2024-02-15T09:28:05;9.30;;;7.30;;
21729;SDS011;11027;51.030;13.812;2024-02-15T09:30:30;9.40;;;6.57;;
21729;SDS011;11027;51.030;13.812;2024-02-15T09:32:56;15.35;;;10.70;;
21729;SDS011;11027;51.030;13.812;2024-02-15T09:35:22;15.20;;;8.75;;
21729;SDS011;11027;51.030;13.812;2024-02-15T09:37:48;10.75;;;7.75;;
21729;SDS011;11027;51.030;13.812;2024-02-15T09:40:14;13.52;;;8.75;;
21729;SDS011;11027;51.030;13.812;2024-02-15T09:42:41;10.60;;;7.60;;
21729;SDS011;11027;51.030;13.812;2024-02-15T09:45:09;9.60;;;7.05;;
21729;SDS011;11027;51.030;13.812;2024-02-15T09:47:36;10.88;;;7.38;;
21729;SDS011;11027;51.030;13.812;2024-02-15T09:50:02;9.00;;;7.15;;
21729;SDS011;11027;51.030;13.812;2024-02-15T09:52:31;10.93;;;7.55;;
21729;SDS011;11027;51.030;13.812;2024-02-15T09:55:00;8.52;;;7.03;;
21729;SDS011;11027;51.030;13.812;2024-02-15T09:57:27;8.10;;;6.72;;
21729;SDS011;11027;51.030;13.812;2024-02-15T09:59:54;8.85;;;6.95;;
21729;SDS011;11027;51.030;13.812;2024-02-15T10:02:19;9.60;;;7.03;;
21729;SDS011;11027;51.030;13.812;2024-02-15T10:04:46;10.23;;;7.40;;
21729;SDS011;11027;51.030;13.812;2024-02-15T10:07:13;11.23;;;8.43;;
21729;SDS011;11027;51.030;13.812;2024-02-15T10:09:38;10.70;;;8.63;;
21729;SDS011;11027;51.030;13.812;2024-02-15T10:12:07;10.98;;;7.72;;
21729;SDS011;11027;51.030;13.812;2024-02-15T10:14:34;10.38;;;8.25;;
21729;SDS011;11027;51.030;13.812;2024-02-15T10:17:05;10.35;;;7.43;;
21729;SDS011;11027;51.030;13.812;2024-02-15T10:19:34;9.30;;;7.82;;
21729;SDS011;11027;51.030;13.812;2024-02-15T10:22:05;11.55;;;7.70;;
21729;SDS011;11027;51.030;13.812;2024-02-15T10:24:31;10.23;;;8.02;;
21729;SDS011;11027;51.030;13.812;2024-02-15T10:27:00;14.00;;;10.35;;
21729;SDS011;11027;51.030;13.812;2024-02-15T10:29:31;11.48;;;9.40;;
21729;SDS011;11027;51.030;13.812;2024-02-15T10:31:59;12.27;;;8.88;;
21729;SDS011;11027;51.030;13.812;2024-02-15T10:34:25;12.50;;;7.68;;
21729;SDS011;11027;51.030;13.812;2024-02-15T10:36:52;11.15;;;7.95;;
21729;SDS011;11027;51.030;13.812;2024-02-15T10:39:19;12.00;;;7.72;;
21729;SDS011;11027;51.030;13.812;2024-02-15T10:41:45;12.18;;;7.43;;
21729;SDS011;11027;51.030;13.812;2024-02-15T10:44:16;9.68;;;8.07;;
21729;SDS011;11027;51.030;13.812;2024-02-15T10:46:49;9.77;;;7.50;;
21729;SDS011;11027;51.030;13.812;2024-02-15T10:49:18;10.68;;;7.68;;
21729;SDS011;11027;51.030;13.812;2024-02-15T10:51:51;9.20;;;7.47;;
21729;SDS011;11027;51.030;13.812;2024-02-15T10:54:27;9.55;;;7.63;;
21729;SDS011;11027;51.030;13.812;2024-02-15T10:57:01;11.10;;;7.97;;
21729;SDS011;11027;51.030;13.812;2024-02-15T10:59:31;10.73;;;7.50;;
21729;SDS011;11027;51.030;13.812;2024-02-15T11:02:00;10.95;;;7.65;;
21729;SDS011;11027;51.030;13.812;2024-02-15T11:04:25;10.18;;;7.40;;
21729;SDS011;11027;51.030;13.812;2024-02-15T11:06:57;9.27;;;7.28;;
21729;SDS011;11027;51.030;13.812;2024-02-15T11:09:23;10.23;;;7.28;;
21729;SDS011;11027;51.030;13.812;2024-02-15T11:11:52;9.23;;;6.60;;
21729;SDS011;11027;51.030;13.812;2024-02-15T11:14:30;11.10;;;7.00;;
21729;SDS011;11027;51.030;13.812;2024-02-15T11:16:57;11.02;;;6.63;;
21729;SDS011;11027;51.030;13.812;2024-02-15T11:22:00;11.00;;;6.70;;
21729;SDS011;11027;51.030;13.812;2024-02-15T11:24:32;10.95;;;7.85;;
21729;SDS011;11027;51.030;13.812;2024-02-15T11:27:01;9.70;;;7.20;;
21729;SDS011;11027;51.030;13.812;2024-02-15T11:32:47;11.93;;;8.38;;
21729;SDS011;11027;51.030;13.812;2024-02-15T11:35:19;14.57;;;8.60;;
21729;SDS011;11027;51.030;13.812;2024-02-15T11:40:13;14.15;;;8.23;;
21729;SDS011;11027;51.030;13.812;2024-02-15T11:42:42;13.50;;;7.53;;
21729;SDS011;11027;51.030;13.812;2024-02-15T11:45:08;11.52;;;8.38;;
21729;SDS011;11027;51.030;13.812;2024-02-15T11:47:37;12.27;;;7.53;;
21729;SDS011;11027;51.030;13.812;2024-02-15T11:50:05;11.65;;;8.38;;
21729;SDS011;11027;51.030;13.812;2024-02-15T11:52:33;8.70;;;7.38;;
21729;SDS011;11027;51.030;13.812;2024-02-15T11:55:08;9.82;;;7.30;;
21729;SDS011;11027;51.030;13.812;2024-02-15T11:57:35;10.02;;;7.40;;
21729;SDS011;11027;51.030;13.812;2024-02-15T12:00:03;9.25;;;7.20;;
21729;SDS011;11027;51.030;13.812;2024-02-15T12:02:59;8.35;;;6.20;;
21729;SDS011;11027;51.030;13.812;2024-02-15T12:05:44;13.82;;;6.78;;
21729;SDS011;11027;51.030;13.812;2024-02-15T12:08:28;8.77;;;5.97;;
21729;SDS011;11027;51.030;13.812;2024-02-15T12:11:13;8.38;;;6.18;;
21729;SDS011;11027;51.030;13.812;2024-02-15T12:13:58;8.13;;;5.10;;
21729;SDS011;11027;51.030;13.812;2024-02-15T12:16:42;7.03;;;5.00;;
21729;SDS011;11027;51.030;13.812;2024-02-15T12:19:26;7.15;;;4.93;;
21729;SDS011;11027;51.030;13.812;2024-02-15T12:21:51;6.63;;;4.93;;
21729;SDS011;11027;51.030;13.812;2024-02-15T12:24:18;5.72;;;4.80;;
21729;SDS011;11027;51.030;13.812;2024-02-15T12:26:46;8.38;;;4.28;;
21729;SDS011;11027;51.030;13.812;2024-02-15T12:29:16;5.70;;;4.13;;
21729;SDS011;11027;51.030;13.812;2024-02-15T12:31:42;7.07;;;4.55;;
21729;SDS011;11027;51.030;13.812;2024-02-15T12:34:09;9.30;;;4.40;;
21729;SDS011;11027;51.030;13.812;2024-02-15T12:36:35;5.68;;;4.45;;
21729;SDS011;11027;51.030;13.812;2024-02-15T12:39:04;4.90;;;3.55;;
21729;SDS011;11027;51.030;13.812;2024-02-15T12:41:39;5.53;;;3.65;;
21729;SDS011;11027;51.030;13.812;2024-02-15T12:44:06;3.90;;;3.25;;
21729;SDS011;11027;51.030;13.812;2024-02-15T12:46:33;4.85;;;3.08;;
21729;SDS011;11027;51.030;13.812;2024-02-15T12:51:49;4.72;;;3.30;;
21729;SDS011;11027;51.030;13.812;2024-02-15T12:54:22;6.97;;;3.28;;
21729;SDS011;11027;51.030;13.812;2024-02-15T12:56:49;6.93;;;4.03;;
21729;SDS011;11027;51.030;13.812;2024-02-15T12:59:16;6.13;;;3.80;;
21729;SDS011;11027;51.030;13.812;2024-02-15T13:01:41;3.60;;;2.60;;
21729;SDS011;11027;51.030;13.812;2024-02-15T13:04:07;6.22;;;3.13;;
21729;SDS011;11027;51.030;13.812;2024-02-15T13:06:33;4.40;;;2.80;;
21729;SDS011;11027;51.030;13.812;2024-02-15T13:09:01;5.07;;;3.00;;
21729;SDS011;11027;51.030;13.812;2024-02-15T13:11:28;4.32;;;2.85;;
21729;SDS011;11027;51.030;13.812;2024-02-15T13:13:53;4.80;;;3.15;;
21729;SDS011;11027;51.030;13.812;2024-02-15T13:16:20;3.70;;;3.05;;
21729;SDS011;11027;51.030;13.812;2024-02-15T13:18:45;5.90;;;3.63;;
21729;SDS011;11027;51.030;13.812;2024-02-15T13:21:12;4.75;;;3.17;;
21729;SDS011;11027;51.030;13.812;2024-02-15T13:23:37;4.97;;;3.50;;
21729;SDS011;11027;51.030;13.812;2024-02-15T13:26:02;5.25;;;3.63;;
21729;SDS011;11027;51.030;13.812;2024-02-15T13:28:29;3.80;;;3.20;;
21729;SDS011;11027;51.030;13.812;2024-02-15T13:30:55;5.93;;;3.75;;
21729;SDS011;11027;51.030;13.812;2024-02-15T13:33:21;6.40;;;3.70;;
21729;SDS011;11027;51.030;13.812;2024-02-15T13:35:46;5.93;;;3.70;;
21729;SDS011;11027;51.030;13.812;2024-02-15T13:38:14;8.73;;;4.75;;
21729;SDS011;11027;51.030;13.812;2024-02-15T13:40:45;7.07;;;4.88;;
21729;SDS011;11027;51.030;13.812;2024-02-15T13:43:14;6.47;;;4.40;;
21729;SDS011;11027;51.030;13.812;2024-02-15T13:45:42;7.28;;;4.25;;
21729;SDS011;11027;51.030;13.812;2024-02-15T13:48:09;5.97;;;4.20;;
21729;SDS011;11027;51.030;13.812;2024-02-15T13:50:38;4.95;;;3.38;;
21729;SDS011;11027;51.030;13.812;2024-02-15T13:53:03;6.85;;;3.95;;
21729;SDS011;11027;51.030;13.812;2024-02-15T13:55:29;4.40;;;3.53;;
21729;SDS011;11027;51.030;13.812;2024-02-15T13:57:55;4.57;;;3.20;;
21729;SDS011;11027;51.030;13.812;2024-02-15T14:00:25;4.03;;;3.03;;
21729;SDS011;11027;51.030;13.812;2024-02-15T14:02:59;4.40;;;3.00;;
21729;SDS011;11027;51.030;13.812;2024-02-15T14:05:25;4.35;;;3.15;;
21729;SDS011;11027;51.030;13.812;2024-02-15T14:07:58;4.75;;;3.03;;
21729;SDS011;11027;51.030;13.812;2024-02-15T14:10:25;6.32;;;3.20;;
21729;SDS011;11027;51.030;13.812;2024-02-15T14:12:52;3.35;;;2.35;;
21729;SDS011;11027;51.030;13.812;2024-02-15T14:15:20;2.55;;;1.80;;
21729;SDS011;11027;51.030;13.812;2024-02-15T14:17:46;5.32;;;2.80;;
21729;SDS011;11027;51.030;13.812;2024-02-15T14:20:11;4.13;;;2.78;;
21729;SDS011;11027;51.030;13.812;2024-02-15T14:22:40;3.75;;;2.45;;
21729;SDS011;11027;51.030;13.812;2024-02-15T14:25:07;6.47;;;2.38;;
21729;SDS011;11027;51.030;13.812;2024-02-15T14:27:32;3.85;;;2.30;;
21729;SDS011;11027;51.030;13.812;2024-02-15T14:29:57;6.05;;;2.15;;
21729;SDS011;11027;51.030;13.812;2024-02-15T14:32:41;3.30;;;2.33;;
21729;SDS011;11027;51.030;13.812;2024-02-15T14:35:39;5.60;;;3.17;;
21729;SDS011;11027;51.030;13.812;2024-02-15T14:38:08;4.80;;;3.33;;